Silver Cloud — C6MQ5 — position and weather

sailwx.info

Track history (hours):
 
Tides and Currents Weather Stations Pressure Air Temp Water Temp Dewpoint Dewpoint Depression Visibility Wind Speed Wind Dir Waves Ship Positions

Silver Cloud

Operator: V Ships Leisure SAM

Last reported at 2020-Mar-24 00:24 UTC. Time now 2020-Apr-05 06:31 UTC.
Position S 33°48' E 018°18'.
Warning: this ship's position is 12 days out of date.

Length 156 m; draft 5.7 m.

Type: Passenger vessel. MMSI: 309027000.

Date/timePositionNaut miles runAvg speedWind from/ knotsBaromVisibWave heightAir tempDewpointWater temp
2020-Mar-24 00:24S 33°48' E 018°18'9 9.5
2020-Mar-23 23:30S 33°53' E 018°26'1 0.5
2020-Mar-23 20:59S 33°55' E 018°26'0 0.0
2020-Mar-23 19:29S 33°55' E 018°26'0 0.0
2020-Mar-23 13:26S 33°55' E 018°26'0 0.0
2020-Mar-23 12:56S 33°55' E 018°26'0 0.0
2020-Mar-23 11:14S 33°55' E 018°26'0 0.0
2020-Mar-23 10:50S 33°55' E 018°26'0 0.0
2020-Mar-22 17:29S 33°55' E 018°26'0 0.0
2020-Mar-22 15:59S 33°55' E 018°26'0 0.0
2020-Mar-22 11:59S 33°55' E 018°26'0 0.0
2020-Mar-22 08:29S 33°55' E 018°26'0 0.0
2020-Mar-22 05:59S 33°55' E 018°26'0 0.0
2020-Mar-22 04:59S 33°55' E 018°26'0 0.0
2020-Mar-22 03:29S 33°55' E 018°26'0 0.0
2020-Mar-22 02:26S 33°55' E 018°26'0 0.0
2020-Mar-21 23:29S 33°55' E 018°26'0 0.0
2020-Mar-21 22:29S 33°55' E 018°26'0 0.0
2020-Mar-21 20:29S 33°55' E 018°26'0 0.0
2020-Mar-21 19:29S 33°55' E 018°26'0 0.0
2020-Mar-21 17:59S 33°55' E 018°26'0 0.0
2020-Mar-21 17:29S 33°55' E 018°26'0 0.0
2020-Mar-21 16:20S 33°55' E 018°26'0 0.0
2020-Mar-21 13:26S 33°55' E 018°26'0 0.0
2020-Mar-21 11:29S 33°55' E 018°26'0 0.0
2020-Mar-21 09:29S 33°55' E 018°26'0 0.0
2020-Mar-21 02:59S 33°55' E 018°26'0 0.0
2020-Mar-21 02:29S 33°55' E 018°26'0 0.0
2020-Mar-21 01:59S 33°55' E 018°26'0 0.0
2020-Mar-21 01:29S 33°55' E 018°26'0 0.0
2020-Mar-21 00:59S 33°55' E 018°26'0 0.0
2020-Mar-20 23:59S 33°55' E 018°26'0 0.0
2020-Mar-20 22:59S 33°55' E 018°26'0 0.0
2020-Mar-20 21:29S 33°55' E 018°26'0 0.0
2020-Mar-20 20:59S 33°55' E 018°26'0 0.0
2020-Mar-20 20:29S 33°55' E 018°26'0 0.0
2020-Mar-20 19:23S 33°55' E 018°26'0 0.0
2020-Mar-20 18:59S 33°55' E 018°26'0 0.0
2020-Mar-20 16:56S 33°55' E 018°26'0 0.0
2020-Mar-20 15:59S 33°55' E 018°26'0 0.0
2020-Mar-20 14:29S 33°55' E 018°26'0 0.0
2020-Mar-20 13:59S 33°55' E 018°26'0 0.0
2020-Mar-20 12:59S 33°55' E 018°26'0 0.0
2020-Mar-20 10:59S 33°55' E 018°26'0 0.0
2020-Mar-20 08:59S 33°55' E 018°26'0 0.0
2020-Mar-20 08:29S 33°55' E 018°26'1 0.5
2020-Mar-20 05:58S 33°55' E 018°27'0 0.0
2020-Mar-20 05:28S 33°55' E 018°27'0 0.0
2020-Mar-20 02:58S 33°55' E 018°27'0 0.0
2020-Mar-20 02:28S 33°55' E 018°27'0 0.0
2020-Mar-19 23:58S 33°55' E 018°27'0 0.0
2020-Mar-19 22:58S 33°55' E 018°27'0 0.0
2020-Mar-19 22:28S 33°55' E 018°27'0 0.0
2020-Mar-19 19:58S 33°55' E 018°27'0 0.0
2020-Mar-19 19:28S 33°55' E 018°27'0 0.0
2020-Mar-19 18:28S 33°55' E 018°27'0 0.0
2020-Mar-19 16:28S 33°55' E 018°27'4 1.9
2020-Mar-19 14:30S 33°53' E 018°23'0 0.0
2020-Mar-19 13:54S 33°53' E 018°23'0 0.0
2020-Mar-19 13:24S 33°53' E 018°23'14 3.6
2020-Mar-19 09:28S 33°58' E 018°06'8 7.7
2020-Mar-19 08:27S 34°05' E 018°07'9 4.7
2020-Mar-19 06:29S 33°56' E 018°07'3 0.8
2020-Mar-19 02:28S 33°59' E 018°08'1 0.9
2020-Mar-19 00:59S 33°58' E 018°08'7 1.4
2020-Mar-18 19:41S 34°05' E 018°06'6 5.3
2020-Mar-18 18:30S 33°59' E 018°06'6 1.3
2020-Mar-18 13:30S 34°05' E 018°09'7 7.2
2020-Mar-18 12:30S 33°58' E 018°09'  
Track history (hours):
 
Tides and Currents Weather Stations Pressure Air Temp Water Temp Dewpoint Dewpoint Depression Visibility Wind Speed Wind Dir Waves Ship Positions

Silver Cloud

Operator: V Ships Leisure SAM

Last reported at 2020-Mar-24 00:24 UTC. Time now 2020-Apr-05 06:31 UTC.
Position S 33°48' E 018°18'.
Warning: this ship's position is 12 days out of date.

Length 156 m; draft 5.7 m.

Type: Passenger vessel. MMSI: 309027000.

Date/timePositionNaut miles runAvg speedWind from/ knotsBaromVisibWave heightAir tempDewpointWater temp
2020-Mar-24 00:24S 33°48' E 018°18'9 9.5
2020-Mar-23 23:30S 33°53' E 018°26'1 0.5
2020-Mar-23 20:59S 33°55' E 018°26'0 0.0
2020-Mar-23 19:29S 33°55' E 018°26'0 0.0
2020-Mar-23 13:26S 33°55' E 018°26'0 0.0
2020-Mar-23 12:56S 33°55' E 018°26'0 0.0
2020-Mar-23 11:14S 33°55' E 018°26'0 0.0
2020-Mar-23 10:50S 33°55' E 018°26'0 0.0
2020-Mar-22 17:29S 33°55' E 018°26'0 0.0
2020-Mar-22 15:59S 33°55' E 018°26'0 0.0
2020-Mar-22 11:59S 33°55' E 018°26'0 0.0
2020-Mar-22 08:29S 33°55' E 018°26'0 0.0
2020-Mar-22 05:59S 33°55' E 018°26'0 0.0
2020-Mar-22 04:59S 33°55' E 018°26'0 0.0
2020-Mar-22 03:29S 33°55' E 018°26'0 0.0
2020-Mar-22 02:26S 33°55' E 018°26'0 0.0
2020-Mar-21 23:29S 33°55' E 018°26'0 0.0
2020-Mar-21 22:29S 33°55' E 018°26'0 0.0
2020-Mar-21 20:29S 33°55' E 018°26'0 0.0
2020-Mar-21 19:29S 33°55' E 018°26'0 0.0
2020-Mar-21 17:59S 33°55' E 018°26'0 0.0
2020-Mar-21 17:29S 33°55' E 018°26'0 0.0
2020-Mar-21 16:20S 33°55' E 018°26'0 0.0
2020-Mar-21 13:26S 33°55' E 018°26'0 0.0
2020-Mar-21 11:29S 33°55' E 018°26'0 0.0
2020-Mar-21 09:29S 33°55' E 018°26'0 0.0
2020-Mar-21 02:59S 33°55' E 018°26'0 0.0
2020-Mar-21 02:29S 33°55' E 018°26'0 0.0
2020-Mar-21 01:59S 33°55' E 018°26'0 0.0
2020-Mar-21 01:29S 33°55' E 018°26'0 0.0
2020-Mar-21 00:59S 33°55' E 018°26'0 0.0
2020-Mar-20 23:59S 33°55' E 018°26'0 0.0
2020-Mar-20 22:59S 33°55' E 018°26'0 0.0
2020-Mar-20 21:29S 33°55' E 018°26'0 0.0
2020-Mar-20 20:59S 33°55' E 018°26'0 0.0
2020-Mar-20 20:29S 33°55' E 018°26'0 0.0
2020-Mar-20 19:23S 33°55' E 018°26'0 0.0
2020-Mar-20 18:59S 33°55' E 018°26'0 0.0
2020-Mar-20 16:56S 33°55' E 018°26'0 0.0
2020-Mar-20 15:59S 33°55' E 018°26'0 0.0
2020-Mar-20 14:29S 33°55' E 018°26'0 0.0
2020-Mar-20 13:59S 33°55' E 018°26'0 0.0
2020-Mar-20 12:59S 33°55' E 018°26'0 0.0
2020-Mar-20 10:59S 33°55' E 018°26'0 0.0
2020-Mar-20 08:59S 33°55' E 018°26'0 0.0
2020-Mar-20 08:29S 33°55' E 018°26'1 0.5
2020-Mar-20 05:58S 33°55' E 018°27'0 0.0
2020-Mar-20 05:28S 33°55' E 018°27'0 0.0
2020-Mar-20 02:58S 33°55' E 018°27'0 0.0
2020-Mar-20 02:28S 33°55' E 018°27'0 0.0
2020-Mar-19 23:58S 33°55' E 018°27'0 0.0
2020-Mar-19 22:58S 33°55' E 018°27'0 0.0
2020-Mar-19 22:28S 33°55' E 018°27'0 0.0
2020-Mar-19 19:58S 33°55' E 018°27'0 0.0
2020-Mar-19 19:28S 33°55' E 018°27'0 0.0
2020-Mar-19 18:28S 33°55' E 018°27'0 0.0
2020-Mar-19 16:28S 33°55' E 018°27'4 1.9
2020-Mar-19 14:30S 33°53' E 018°23'0 0.0
2020-Mar-19 13:54S 33°53' E 018°23'0 0.0
2020-Mar-19 13:24S 33°53' E 018°23'14 3.6
2020-Mar-19 09:28S 33°58' E 018°06'8 7.7
2020-Mar-19 08:27S 34°05' E 018°07'9 4.7
2020-Mar-19 06:29S 33°56' E 018°07'3 0.8
2020-Mar-19 02:28S 33°59' E 018°08'1 0.9
2020-Mar-19 00:59S 33°58' E 018°08'7 1.4
2020-Mar-18 19:41S 34°05' E 018°06'6 5.3
2020-Mar-18 18:30S 33°59' E 018°06'6 1.3
2020-Mar-18 13:30S 34°05' E 018°09'7 7.2
2020-Mar-18 12:30S 33°58' E 018°09'  

Dump ship's entire track history